• Join FlightAware (Why Join?)
  • Login
  • US Flag 
02:07AM EDT


 

Airport Tracker/Info


-or-


 

Live Flight TrackerFlight Track Log ✈ EGF2839 ✈ 26-Apr-2013 ✈ KDFW - KGRR

Flight Track Log - Related Links

Times and Time Zones

All times are in EDT time to prevent confusion due to time zone crossing. See the EGF2839 flight status page for this flight to view local times or setup timezone preferences in your user account.

Time Position Orientation Groundspeed Altitude Reporting Facility
EDT Latitude Longitude Course Direction KTS MPH feet Rate Location/Type
04:21PM 32.8833 -97.0500 309° West 154 177 1,400  Level Dallas / Fort Worth TRACON
04:22PM 32.8333 -97.0667 196° South 188 216 3,200 2,100 Climbing Dallas / Fort Worth TRACON
04:23PM 32.7833 -97.0833 196° South 180 207 5,600 1,860 Climbing Dallas / Fort Worth TRACON
04:24PM 32.8221 -97.3220 307° West  Level FlightAware Approximate
04:24PM 32.7667 -97.1500 253° West 244 281 7,000  Level Dallas / Fort Worth TRACON
04:25PM 32.8963 -97.4360 308° West  Level FlightAware Approximate
04:25PM 32.7644 -97.2033 267° West 253 291 8,100  Level Fort Worth Center
04:26PM 32.9717 -97.5491 309° West  Level FlightAware Approximate
04:26PM 32.7917 -97.2750 294° West 253 291 10,100  Level Fort Worth Center
04:27PM 33.0471 -97.6622 309° West  Level FlightAware Approximate
04:27PM 32.8417 -97.3517 308° West 276 318 10,700  Level Fort Worth Center
04:28PM 32.9003 -97.4381 309° West 319 367 11,700 960 Climbing Fort Worth Center
04:29PM 32.9586 -97.5272 308° West 334 384 12,700 1,020 Climbing Fort Worth Center
04:30PM 33.0169 -97.6192 307° West 344 396 13,800 1,200 Climbing Fort Worth Center
04:31PM 33.0753 -97.7108 307° West 344 396 15,100 1,200 Climbing Fort Worth Center
04:32PM 33.1144 -97.8028 297° West 339 390 16,200 1,140 Climbing Fort Worth Center
04:33PM 33.1497 -97.9172 290° West 334 384 17,400 1,080 Climbing Fort Worth Center
04:34PM 33.1783 -98.0117 290° West 339 390 18,400 1,140 Climbing Fort Worth Center
04:35PM 33.2153 -98.1286 291° West 339 390 19,700 1,140 Climbing Fort Worth Center
04:36PM 33.2481 -98.2356 290° West 339 390 20,700 1,140 Climbing Fort Worth Center
04:37PM 33.2828 -98.3428 291° West 349 402 22,000 1,140 Climbing Fort Worth Center
04:38PM 33.3175 -98.4500 291° West 349 402 23,100 1,020 Climbing Fort Worth Center
04:39PM 33.3458 -98.5475 289° West 349 402 24,100 1,080 Climbing Fort Worth Center
04:40PM 33.3783 -98.6522 290° West 349 402 25,300 1,140 Climbing Fort Worth Center
04:41PM 33.4086 -98.7547 290° West 349 402 26,400 1,140 Climbing Fort Worth Center
04:42PM 33.4428 -98.8622 291° West 349 402 27,600 1,140 Climbing Fort Worth Center
04:43PM 33.4769 -98.9675 291° West 349 402 28,700 1,140 Climbing Fort Worth Center
04:44PM 33.5069 -99.0725 289° West 343 395 29,900 1,140 Climbing Fort Worth Center
04:45PM 33.5411 -99.1778 291° West 343 395 31,000 1,140 Climbing Fort Worth Center
04:46PM 33.5708 -99.2808 289° West 338 389 32,200 1,140 Climbing Fort Worth Center
04:47PM 33.6217 -99.3742 303° West 333 383 33,300 1,020 Climbing Fort Worth Center
04:48PM 33.7258 -99.3889 353° North 322 371 34,300 840 Climbing Fort Worth Center
04:49PM 33.8372 -99.3314 23° Northeast 347 399 35,000 300 Climbing Fort Worth Center
04:50PM 33.9486 -99.2814 20° North 387 445 35,000  Level Fort Worth Center
04:51PM 34.0703 -99.2314 19° North 421 484 35,000  Level Fort Worth Center
04:52PM 34.1922 -99.1736 21° North 449 517 35,000  Level Fort Worth Center
04:53PM 34.3203 -99.1233 18° North 463 533 35,000  Level Fort Worth Center
04:54PM 34.4481 -99.0731 18° North 477 549 35,000  Level Fort Worth Center
04:55PM 34.5742 -99.0175 20° North 477 549 35,000  Level Fort Worth Center
04:56PM 34.6978 -98.9592 21° North 477 549 35,000  Level Fort Worth Center
04:57PM 34.8197 -98.8956 23° Northeast 477 549 35,000  Level Fort Worth Center
04:58PM 34.9006 -98.7603 54° Northeast 471 542 35,000  Level Fort Worth Center
04:59PM 34.9769 -98.6147 57° Northeast 477 549 35,000  Level Fort Worth Center
05:00PM 35.0533 -98.4736 56° Northeast 495 570 35,000  Level Fort Worth Center
05:01PM 35.1317 -98.3300 56° Northeast 495 570 35,000  Level Fort Worth Center
05:02PM 35.2078 -98.1861 57° Northeast 505 581 35,000  Level Fort Worth Center
05:03PM 35.2858 -98.0392 57° Northeast 505 581 35,000  Level Fort Worth Center
05:04PM 35.3636 -97.8922 57° Northeast 505 581 35,000  Level Fort Worth Center
05:06PM 35.5047 -97.6219 57° Northeast 517 595 35,000  Level Kansas City Center
05:07PM 35.5839 -97.4706 57° Northeast 516 594 35,000  Level Kansas City Center
05:08PM 35.6617 -97.3200 58° Northeast 515 593 35,000  Level Kansas City Center
05:09PM 35.7522 -97.1419 58° Northeast 509 586 35,000  Level Kansas City Center
05:10PM 35.8275 -96.9956 58° Northeast 507 583 35,000  Level Kansas City Center
05:11PM 35.9025 -96.8475 58° Northeast 508 585 35,000  Level Kansas City Center
05:12PM 35.9786 -96.7003 57° Northeast 509 586 35,000  Level Kansas City Center
05:13PM 36.0561 -96.5472 58° Northeast 506 582 35,000  Level Kansas City Center
05:14PM 36.1297 -96.3989 58° Northeast 505 581 35,000  Level Kansas City Center
05:15PM 36.2050 -96.2503 58° Northeast 508 585 35,000  Level Kansas City Center
05:16PM 36.2794 -96.1017 58° Northeast 507 583 35,000  Level Kansas City Center
05:17PM 36.3689 -95.9225 58° Northeast 507 583 35,000  Level Kansas City Center
05:18PM 36.4433 -95.7722 58° Northeast 507 583 35,000  Level Kansas City Center
05:19PM 36.5122 -95.6356 58° Northeast 506 582 35,000  Level Kansas City Center
05:20PM 36.5861 -95.4858 58° Northeast 508 585 35,000  Level Kansas City Center
05:21PM 36.6686 -95.3139 59° Northeast 507 583 35,000  Level Kansas City Center
05:22PM 36.7411 -95.1628 59° Northeast 505 581 35,000  Level Kansas City Center
05:23PM 36.8136 -95.0106 59° Northeast 506 582 35,000  Level Kansas City Center
05:25PM 36.8872 -94.8608 58° Northeast 505 581 35,000 120 Level Kansas City Center
05:26PM 36.9592 -94.7119 59° Northeast 501 577 35,300 780 Climbing Kansas City Center
05:27PM 37.0417 -94.5364 59° Northeast 489 563 36,700 780 Climbing Kansas City Center
05:28PM 37.1086 -94.3967 59° Northeast 473 544 37,000 120 Climbing Kansas City Center
05:29PM 37.1764 -94.2542 59° Northeast 473 544 37,000  Level Kansas City Center
05:30PM 37.2644 -94.1311 48° Northeast 471 542 37,000 -60 Level Kansas City Center
05:31PM 37.3642 -94.0050 45° Northeast 474 545 36,900  Descending Kansas City Center
05:32PM 37.4508 -93.8903 46° Northeast 458 527 37,000  Climbing Kansas City Center
05:33PM 37.5397 -93.7694 47° Northeast 464 534 37,000  Level Kansas City Center
05:34PM 37.6311 -93.6456 47° Northeast 475 547 37,000  Level Kansas City Center
05:35PM 37.7242 -93.5192 47° Northeast 484 557 37,000  Level Kansas City Center
05:36PM 37.8150 -93.3931 48° Northeast 484 557 37,000  Level Kansas City Center
05:37PM 37.9261 -93.2406 47° Northeast 487 560 37,000  Level Kansas City Center
05:38PM 38.0194 -93.1125 47° Northeast 489 563 37,000  Level Kansas City Center
05:39PM 38.1136 -92.9806 48° Northeast 496 571 37,000  Level Kansas City Center
05:40PM 38.2081 -92.8514 47° Northeast 495 570 37,000  Level Kansas City Center
05:41PM 38.3011 -92.7197 48° Northeast 494 568 37,000  Level Kansas City Center
05:42PM 38.3933 -92.5878 48° Northeast 493 567 37,000  Level Kansas City Center
05:43PM 38.4867 -92.4589 47° Northeast 490 564 37,000  Level Kansas City Center
05:44PM 38.5772 -92.3272 49° Northeast 489 563 37,000  Level Kansas City Center
05:45PM 38.6697 -92.1958 48° Northeast 491 565 37,000  Level Kansas City Center
05:46PM 38.7803 -92.0394 48° Northeast 491 565 37,000  Level Kansas City Center
05:47PM 38.8706 -91.9064 49° Northeast 492 566 37,000  Level Kansas City Center
05:48PM 38.9625 -91.7744 48° Northeast 492 566 37,000  Level Kansas City Center
05:49PM 39.0447 -91.6567 48° Northeast 497 572 37,000  Level Kansas City Center
05:50PM 39.1572 -91.4956 48° Northeast 502 578 37,000  Level Kansas City Center
05:51PM 39.2500 -91.3589 49° Northeast 504 580 37,000  Level Kansas City Center
05:52PM 39.3453 -91.2200 48° Northeast 511 588 37,000  Level Kansas City Center
05:53PM 39.4392 -91.0814 49° Northeast 512 589 37,000  Level Kansas City Center
05:55PM 39.5325 -90.9428 49° Northeast 511 588 37,000  Level Kansas City Center
05:56PM 39.6264 -90.8039 49° Northeast 510 587 37,000  Level Kansas City Center
05:57PM 39.7194 -90.6639 49° Northeast 510 587 37,000  Level Kansas City Center
05:58PM 39.8281 -90.5000 49° Northeast 500 575 37,000  Level Kansas City Center
05:59PM 39.9183 -90.3650 49° Northeast 498 573 37,000  Level Kansas City Center
05:59PM 39.9714 -90.2861 49° Northeast 493 567 37,000  Level Chicago Center
06:00PM 40.0589 -90.1508 50° Northeast 490 564 37,000  Level Chicago Center
06:01PM 40.1464 -90.0175 49° Northeast 488 562 37,000  Level Chicago Center
06:02PM 40.2331 -89.8847 49° Northeast 482 555 37,000  Level Chicago Center
06:03PM 40.3369 -89.7247 50° Northeast 484 557 37,000  Level Chicago Center
06:04PM 40.4228 -89.5925 50° Northeast 483 556 37,000  Level Chicago Center
06:05PM 40.5081 -89.4575 50° Northeast 485 558 37,000  Level Chicago Center
06:06PM 40.5947 -89.3222 50° Northeast 489 563 37,000  Level Chicago Center
06:08PM 40.6819 -89.1858 50° Northeast 491 565 37,000  Level Chicago Center
06:09PM 40.7869 -89.0217 50° Northeast 490 564 37,000  Level Chicago Center
06:10PM 40.8742 -88.8836 50° Northeast 491 565 37,000  Level Chicago Center
06:11PM 40.9653 -88.7369 51° Northeast 490 564 37,000  Level Chicago Center
06:12PM 41.0519 -88.5983 50° Northeast 491 565 37,000  Level Chicago Center
06:13PM 41.1389 -88.4619 50° Northeast 489 563 37,000 -300 Level Chicago Center
06:14PM 41.2236 -88.3244 51° Northeast 487 560 36,400 -900 Descending Chicago Center
06:15PM 41.3244 -88.1625 50° Northeast 479 551 35,200 -960 Descending Chicago Center
06:16PM 41.4103 -88.0239 50° Northeast 490 564 34,500 -960 Descending Chicago Center
06:17PM 41.4897 -87.8908 51° Northeast 494 568 33,300 -1,380 Descending Chicago Center
06:18PM 41.5894 -87.7286 51° Northeast 478 550 31,700 -1,500 Descending Chicago Center
06:19PM 41.6708 -87.5928 51° Northeast 472 543 30,200 -1,380 Descending Chicago Center
06:20PM 41.7525 -87.4569 51° Northeast 471 542 28,900 -1,560 Descending Chicago Center
06:21PM 41.8361 -87.3192 51° Northeast 477 549 27,000 -1,920 Descending Chicago Center
06:22PM 41.9183 -87.1825 51° Northeast 473 544 25,000 -2,160 Descending Chicago Center
06:23PM 42.0136 -87.0206 52° Northeast 460 529 22,600 -1,980 Descending Chicago Center
06:24PM 42.0911 -86.8908 51° Northeast 448 516 21,000 -1,500 Descending Chicago Center
06:25PM 42.1656 -86.7636 52° Northeast 437 503 19,500 -1,380 Descending Chicago Center
06:26PM 42.2339 -86.6486 51° Northeast 430 495 18,200 -1,260 Descending Chicago Center
06:27PM 42.3144 -86.5106 52° Northeast 412 474 16,900 -1,260 Descending Chicago Center
06:28PM 42.3811 -86.3928 53° Northeast 400 460 15,600 -1,380 Descending Chicago Center
06:29PM 42.4475 -86.2794 52° Northeast 388 447 14,100 -1,440 Descending Chicago Center
06:30PM 42.5150 -86.1642 52° Northeast 391 450 12,700 -1,080 Descending Chicago Center
06:31PM 42.5953 -86.0233 52° Northeast 395 455 11,900 -780 Descending Chicago Center
06:32PM 42.6622 -85.9067 52° Northeast 396 456 11,100 -540 Descending Chicago Center
06:33PM 42.7097 -85.7758 64° Northeast 394 453 10,900 -360 Descending Chicago Center
06:34PM 42.7431 -85.6447 71° East 380 437 10,400 -1,080 Descending Chicago Center
06:35PM 42.7822 -85.5214 67° East 306 352 8,700 -1,980 Descending Chicago Center
06:36PM 42.8064 -85.4158 73° East 297 342 6,400 -2,280 Descending Chicago Center